createdAt,value
2018-07-26T00:00:11.229Z,0.00
2018-07-26T00:01:11.006Z,0.00
2018-07-26T00:02:10.985Z,0.00
2018-07-26T00:03:10.974Z,0.00
2018-07-26T00:04:10.944Z,0.00
2018-07-26T00:05:10.925Z,0.00
2018-07-26T00:06:10.905Z,0.00
2018-07-26T00:07:10.883Z,0.00
2018-07-26T00:08:10.864Z,0.00
2018-07-26T00:09:10.840Z,0.00
2018-07-26T00:10:10.819Z,0.00
2018-07-26T00:11:10.801Z,0.00
2018-07-26T00:12:10.780Z,0.00
2018-07-26T00:13:10.760Z,0.00
2018-07-26T00:14:10.740Z,0.00
2018-07-26T00:15:10.718Z,0.00
2018-07-26T00:16:10.899Z,0.00
2018-07-26T00:17:10.680Z,0.00
2018-07-26T00:18:10.668Z,0.00
2018-07-26T00:19:10.639Z,0.00
2018-07-26T00:20:10.626Z,0.00
2018-07-26T00:21:10.592Z,0.00
2018-07-26T00:22:10.586Z,0.00
2018-07-26T00:23:10.556Z,0.00
2018-07-26T00:24:10.529Z,0.00
2018-07-26T00:25:10.511Z,0.00
2018-07-26T00:26:10.499Z,0.00
2018-07-26T00:27:10.469Z,0.00
2018-07-26T00:28:10.449Z,0.00
2018-07-26T00:29:10.427Z,0.00
2018-07-26T00:30:10.406Z,0.00
2018-07-26T00:31:10.384Z,0.00
2018-07-26T00:32:10.363Z,0.00
2018-07-26T00:33:10.343Z,0.00
2018-07-26T00:34:10.324Z,0.00
2018-07-26T00:35:10.301Z,0.00
2018-07-26T00:36:10.284Z,0.00
2018-07-26T00:37:10.262Z,0.00
2018-07-26T00:38:10.248Z,0.00
2018-07-26T00:39:10.220Z,0.00
2018-07-26T00:40:10.200Z,0.00
2018-07-26T00:41:10.179Z,0.00
2018-07-26T00:42:10.156Z,0.00
2018-07-26T00:43:10.135Z,0.00
2018-07-26T00:44:10.114Z,0.00
2018-07-26T00:45:10.097Z,0.00
2018-07-26T00:46:10.076Z,0.00
2018-07-26T00:47:10.054Z,0.00
2018-07-26T00:48:10.034Z,0.00
2018-07-26T00:49:10.010Z,0.00
2018-07-26T00:50:09.992Z,0.00
2018-07-26T00:51:09.973Z,0.00
2018-07-26T00:52:09.948Z,0.00
2018-07-26T00:53:09.929Z,0.00
2018-07-26T00:54:09.911Z,0.00
2018-07-26T00:55:09.886Z,0.00
2018-07-26T00:56:09.867Z,0.00
2018-07-26T00:57:09.843Z,0.00
2018-07-26T00:58:09.823Z,0.00
2018-07-26T00:59:09.802Z,0.00
2018-07-26T01:00:09.781Z,0.00
2018-07-26T01:01:09.763Z,0.00
2018-07-26T01:02:09.741Z,0.00
2018-07-26T01:03:09.727Z,0.00
2018-07-26T01:04:09.699Z,0.00
2018-07-26T01:05:09.680Z,0.00
2018-07-26T01:06:09.657Z,0.00
2018-07-26T01:07:09.636Z,0.00
2018-07-26T01:08:09.616Z,0.00
2018-07-26T01:09:09.593Z,0.00
2018-07-26T01:10:09.574Z,0.00
2018-07-26T01:11:09.552Z,0.00
2018-07-26T01:12:09.530Z,0.00
2018-07-26T01:13:09.515Z,0.00
2018-07-26T01:14:09.493Z,0.00
2018-07-26T01:15:09.468Z,0.00
2018-07-26T01:16:09.447Z,0.00
2018-07-26T01:17:09.425Z,0.00
2018-07-26T01:18:09.403Z,0.00
2018-07-26T01:19:09.382Z,0.00
2018-07-26T01:20:09.362Z,0.00
2018-07-26T01:21:09.341Z,0.00
2018-07-26T01:22:09.325Z,0.00
2018-07-26T01:23:09.298Z,0.00
2018-07-26T01:24:09.278Z,0.00
2018-07-26T01:25:09.262Z,0.00
2018-07-26T01:26:09.237Z,0.00
2018-07-26T01:27:09.222Z,0.00
2018-07-26T01:28:09.198Z,0.00
2018-07-26T01:29:09.175Z,0.00
2018-07-26T01:30:09.152Z,0.00
2018-07-26T01:31:09.138Z,0.00
2018-07-26T01:32:09.108Z,0.00
2018-07-26T01:33:09.091Z,0.00
2018-07-26T01:34:09.070Z,0.00
2018-07-26T01:35:09.049Z,0.00
2018-07-26T01:36:09.028Z,0.00
2018-07-26T01:37:09.008Z,0.00
2018-07-26T01:38:08.987Z,0.00
2018-07-26T01:39:08.964Z,0.00
2018-07-26T01:40:08.944Z,0.00
2018-07-26T01:41:08.922Z,0.00
2018-07-26T01:42:08.900Z,0.00
2018-07-26T01:43:08.877Z,0.00
2018-07-26T01:44:08.858Z,0.00
2018-07-26T01:45:08.839Z,0.00
2018-07-26T01:46:08.818Z,0.00
2018-07-26T01:47:08.796Z,0.00
2018-07-26T01:48:08.775Z,0.00
2018-07-26T01:49:08.752Z,0.00
2018-07-26T01:50:08.731Z,0.00
2018-07-26T01:51:08.710Z,0.00
2018-07-26T01:52:08.690Z,0.00
2018-07-26T01:53:08.670Z,0.00
2018-07-26T01:54:08.656Z,0.00
2018-07-26T01:55:08.629Z,0.00
2018-07-26T01:56:08.608Z,0.00
2018-07-26T01:57:08.586Z,0.00
2018-07-26T01:58:08.568Z,0.00
2018-07-26T01:59:08.541Z,0.00
2018-07-26T02:00:08.524Z,0.00
2018-07-26T02:01:08.505Z,0.00
2018-07-26T02:02:08.481Z,0.00
2018-07-26T02:03:08.459Z,0.00
2018-07-26T02:04:08.439Z,0.00
2018-07-26T02:05:08.416Z,0.00
2018-07-26T02:06:08.398Z,0.00
2018-07-26T02:07:08.373Z,0.00
2018-07-26T02:08:08.358Z,0.00
2018-07-26T02:09:08.338Z,0.00
2018-07-26T02:10:08.312Z,0.00
2018-07-26T02:11:08.290Z,0.00
2018-07-26T02:12:08.267Z,0.00
2018-07-26T02:13:08.247Z,0.00
2018-07-26T02:14:08.229Z,0.00
2018-07-26T02:15:08.207Z,0.00
2018-07-26T02:16:08.184Z,0.00
2018-07-26T02:17:08.166Z,0.00
2018-07-26T02:18:08.146Z,0.00
2018-07-26T02:19:08.121Z,0.00
2018-07-26T02:20:08.100Z,0.00
2018-07-26T02:21:08.078Z,0.00
2018-07-26T02:22:08.072Z,0.00
2018-07-26T02:23:08.036Z,0.00
2018-07-26T02:24:08.017Z,0.00
2018-07-26T02:25:07.996Z,0.00
2018-07-26T02:26:07.975Z,0.00
2018-07-26T02:27:07.952Z,0.00
2018-07-26T02:28:07.939Z,0.00
2018-07-26T02:29:07.907Z,0.00
2018-07-26T02:30:07.888Z,0.00
2018-07-26T02:31:07.943Z,0.00
2018-07-26T02:32:07.845Z,0.00
2018-07-26T02:33:07.825Z,0.00
2018-07-26T02:34:07.803Z,4.00
2018-07-26T02:35:07.782Z,4.00
2018-07-26T02:36:07.760Z,4.00
2018-07-26T02:37:07.739Z,0.00
2018-07-26T02:38:07.718Z,4.00
2018-07-26T02:39:07.695Z,4.00
2018-07-26T02:40:07.674Z,4.00
2018-07-26T02:41:07.652Z,4.00
2018-07-26T02:42:07.631Z,4.00
2018-07-26T02:43:07.610Z,8.00
2018-07-26T02:44:07.588Z,4.00
2018-07-26T02:45:07.568Z,8.00
2018-07-26T02:46:07.548Z,8.00
2018-07-26T02:47:07.528Z,8.00
2018-07-26T02:48:07.506Z,8.00
2018-07-26T02:49:07.484Z,12.00
2018-07-26T02:50:07.460Z,8.00
2018-07-26T02:51:07.459Z,12.00
2018-07-26T02:52:07.419Z,16.00
2018-07-26T02:53:07.401Z,20.00
2018-07-26T02:54:07.380Z,20.00
2018-07-26T02:55:07.357Z,20.00
2018-07-26T02:56:07.346Z,24.00
2018-07-26T02:57:07.314Z,28.00
2018-07-26T02:58:07.298Z,32.00
2018-07-26T02:59:07.275Z,36.00
2018-07-26T03:00:07.252Z,40.00
2018-07-26T03:01:07.228Z,48.00
2018-07-26T03:02:07.210Z,52.00
2018-07-26T03:03:07.185Z,60.00
2018-07-26T03:04:07.166Z,68.00
2018-07-26T03:05:07.151Z,76.00
2018-07-26T03:06:07.126Z,84.00
2018-07-26T03:07:07.177Z,96.00
2018-07-26T03:08:07.083Z,108.00
2018-07-26T03:09:07.058Z,120.00
2018-07-26T03:10:07.037Z,136.00
2018-07-26T03:11:07.014Z,144.00
2018-07-26T03:12:06.995Z,164.00
2018-07-26T03:13:06.972Z,180.00
2018-07-26T03:14:06.951Z,200.00
2018-07-26T03:15:06.929Z,220.00
2018-07-26T03:16:06.908Z,244.00
2018-07-26T03:17:06.892Z,268.00
2018-07-26T03:18:06.872Z,292.00
2018-07-26T03:19:06.846Z,316.00
2018-07-26T03:20:06.825Z,344.00
2018-07-26T03:21:06.951Z,372.00
2018-07-26T03:22:06.782Z,400.00
2018-07-26T03:23:06.763Z,432.00
2018-07-26T03:24:06.741Z,468.00
2018-07-26T03:25:06.726Z,504.00
2018-07-26T03:26:06.700Z,540.00
2018-07-26T03:27:06.678Z,580.00
2018-07-26T03:28:06.664Z,620.00
2018-07-26T03:29:06.634Z,660.00
2018-07-26T03:30:06.617Z,708.00
2018-07-26T03:31:06.590Z,752.00
2018-07-26T03:32:06.569Z,800.00
2018-07-26T03:33:06.545Z,848.00
2018-07-26T03:34:06.523Z,900.00
2018-07-26T03:35:06.553Z,956.00
2018-07-26T03:36:06.481Z,1008.00
2018-07-26T03:37:06.461Z,1064.00
2018-07-26T03:38:06.441Z,1124.00
2018-07-26T03:39:06.418Z,1184.00
2018-07-26T03:40:06.798Z,1248.00
2018-07-26T03:41:06.374Z,1312.00
2018-07-26T03:42:06.353Z,1380.00
2018-07-26T03:43:06.331Z,1448.00
2018-07-26T03:44:06.310Z,1520.00
2018-07-26T03:45:06.288Z,1592.00
2018-07-26T03:46:06.423Z,1668.00
2018-07-26T03:47:06.248Z,1744.00
2018-07-26T03:48:06.224Z,1820.00
2018-07-26T03:49:06.206Z,1900.00
2018-07-26T03:50:06.186Z,1984.00
2018-07-26T03:51:06.233Z,2068.00
2018-07-26T03:52:06.142Z,2152.00
2018-07-26T03:53:06.121Z,2240.00
2018-07-26T03:54:06.097Z,2332.00
2018-07-26T03:55:06.075Z,2420.00
2018-07-26T03:56:06.054Z,2516.00
2018-07-26T03:57:06.036Z,2608.00
2018-07-26T03:58:06.014Z,2720.00
2018-07-26T03:59:05.991Z,2832.00
2018-07-26T04:00:05.972Z,2940.00
2018-07-26T04:01:05.953Z,3048.00
2018-07-26T04:02:05.930Z,3152.00
2018-07-26T04:03:05.904Z,3260.00
2018-07-26T04:04:05.887Z,3368.00
2018-07-26T04:05:05.865Z,3480.00
2018-07-26T04:06:05.849Z,3592.00
2018-07-26T04:07:05.823Z,3716.00
2018-07-26T04:08:05.800Z,3824.00
2018-07-26T04:09:05.783Z,3948.00
2018-07-26T04:10:05.760Z,4068.00
2018-07-26T04:11:05.736Z,4192.00
2018-07-26T04:12:05.716Z,4320.00
2018-07-26T04:13:05.698Z,4448.00
2018-07-26T04:14:05.720Z,4580.00
2018-07-26T04:15:05.655Z,4712.00
2018-07-26T04:16:05.634Z,4840.00
2018-07-26T04:17:05.622Z,4964.00
2018-07-26T04:18:05.594Z,5104.00
2018-07-26T04:19:05.579Z,5240.00
2018-07-26T04:20:05.634Z,5368.00
2018-07-26T04:21:05.529Z,5500.00
2018-07-26T04:22:05.510Z,5640.00
2018-07-26T04:23:05.489Z,5784.00
2018-07-26T04:24:05.467Z,5920.00
2018-07-26T04:25:05.448Z,6072.00
2018-07-26T04:26:05.433Z,6208.00
2018-07-26T04:27:05.407Z,6376.00
2018-07-26T04:28:05.391Z,6556.00
2018-07-26T04:29:05.364Z,6732.00
2018-07-26T04:30:05.344Z,6916.00
2018-07-26T04:31:05.323Z,7124.00
2018-07-26T04:32:05.491Z,7328.00
2018-07-26T04:33:05.283Z,7548.00
2018-07-26T04:34:05.262Z,7756.00
2018-07-26T04:35:05.244Z,7912.00
2018-07-26T04:36:05.223Z,8080.00
2018-07-26T04:37:05.204Z,8332.00
2018-07-26T04:38:05.185Z,8472.00
2018-07-26T04:39:05.164Z,8652.00
2018-07-26T04:40:05.147Z,8784.00
2018-07-26T04:41:05.122Z,9032.00
2018-07-26T04:42:05.102Z,9224.00
2018-07-26T04:43:05.170Z,9408.00
2018-07-26T04:44:05.063Z,9672.00
2018-07-26T04:45:05.050Z,9852.00
2018-07-26T04:46:05.026Z,10040.00
2018-07-26T04:47:05.005Z,10232.00
2018-07-26T04:48:04.986Z,10528.00
2018-07-26T04:49:04.967Z,10780.00
2018-07-26T04:50:04.946Z,10952.00
2018-07-26T04:51:04.936Z,11160.00
2018-07-26T04:52:04.908Z,11376.00
2018-07-26T04:53:04.888Z,11588.00
2018-07-26T04:54:04.869Z,11856.00
2018-07-26T04:55:04.852Z,12120.00
2018-07-26T04:56:04.828Z,12328.00
2018-07-26T04:57:04.812Z,12624.00
2018-07-26T04:58:04.796Z,12836.00
2018-07-26T04:59:04.773Z,13076.00
2018-07-26T05:00:04.771Z,13256.00
2018-07-26T05:01:04.733Z,13140.00
2018-07-26T05:02:04.718Z,13400.00
2018-07-26T05:03:04.700Z,13844.00
2018-07-26T05:04:04.676Z,14164.00
2018-07-26T05:05:04.658Z,14356.00
2018-07-26T05:06:04.639Z,14356.00
2018-07-26T05:07:04.620Z,14588.00
2018-07-26T05:08:04.606Z,14848.00
2018-07-26T05:09:04.584Z,15232.00
2018-07-26T05:10:04.566Z,15456.00
2018-07-26T05:11:04.546Z,15808.00
2018-07-26T05:12:04.530Z,15968.00
2018-07-26T05:13:04.507Z,15840.00
2018-07-26T05:14:04.708Z,16288.00
2018-07-26T05:15:04.470Z,16544.00
2018-07-26T05:16:04.452Z,16416.00
2018-07-26T05:17:04.433Z,16416.00
2018-07-26T05:18:04.417Z,16736.00
2018-07-26T05:19:04.414Z,17248.00
2018-07-26T05:20:04.379Z,17472.00
2018-07-26T05:21:04.369Z,17632.00
2018-07-26T05:22:04.343Z,17632.00
2018-07-26T05:23:04.327Z,17824.00
2018-07-26T05:24:04.310Z,18496.00
2018-07-26T05:25:04.287Z,19104.00
2018-07-26T05:26:04.275Z,19648.00
2018-07-26T05:27:04.255Z,20384.00
2018-07-26T05:28:04.233Z,20640.00
2018-07-26T05:29:04.220Z,20992.00
2018-07-26T05:30:04.200Z,21792.00
2018-07-26T05:31:04.181Z,22400.00
2018-07-26T05:32:04.167Z,22176.00
2018-07-26T05:33:04.146Z,22208.00
2018-07-26T05:34:04.129Z,22080.00
2018-07-26T05:35:04.111Z,22272.00
2018-07-26T05:36:04.093Z,23072.00
2018-07-26T05:37:04.076Z,23360.00
2018-07-26T05:38:04.063Z,23264.00
2018-07-26T05:39:04.042Z,23264.00
2018-07-26T05:40:04.025Z,23488.00
2018-07-26T05:41:04.013Z,24192.00
2018-07-26T05:42:03.995Z,24416.00
2018-07-26T05:43:04.013Z,24896.00
2018-07-26T05:44:03.962Z,24608.00
2018-07-26T05:45:03.943Z,24640.00
2018-07-26T05:46:03.922Z,25056.00
2018-07-26T05:47:03.907Z,25600.00
2018-07-26T05:48:03.890Z,25664.00
2018-07-26T05:49:03.875Z,26368.00
2018-07-26T05:50:03.860Z,26336.00
2018-07-26T05:51:03.843Z,26080.00
2018-07-26T05:52:03.827Z,26560.00
2018-07-26T05:53:03.810Z,27104.00
2018-07-26T05:54:03.794Z,26880.00
2018-07-26T05:55:03.785Z,26848.00
2018-07-26T05:56:03.763Z,27072.00
2018-07-26T05:57:03.748Z,27104.00
2018-07-26T05:58:03.732Z,26880.00
2018-07-26T05:59:03.711Z,27040.00
2018-07-26T06:00:03.788Z,26912.00
2018-07-26T06:01:03.884Z,27136.00
2018-07-26T06:02:03.667Z,27776.00
2018-07-26T06:03:03.649Z,27808.00
2018-07-26T06:04:03.837Z,28224.00
2018-07-26T06:05:03.617Z,28352.00
2018-07-26T06:06:03.602Z,28544.00
2018-07-26T06:07:03.788Z,29152.00
2018-07-26T06:08:03.772Z,29152.00
2018-07-26T06:09:03.762Z,29952.00
2018-07-26T06:10:03.543Z,30880.00
2018-07-26T06:11:06.352Z,31072.00
2018-07-26T06:12:03.714Z,30144.00
2018-07-26T06:13:03.698Z,31200.00
2018-07-26T06:14:03.683Z,31712.00
2018-07-26T06:15:03.667Z,33024.00
2018-07-26T06:16:03.451Z,33408.00
2018-07-26T06:17:03.440Z,32608.00
2018-07-26T06:18:03.424Z,32416.00
2018-07-26T06:19:03.412Z,32992.00
2018-07-26T06:20:03.392Z,34368.00
2018-07-26T06:21:03.377Z,34400.00
2018-07-26T06:22:03.565Z,33472.00
2018-07-26T06:23:03.347Z,33376.00
2018-07-26T06:24:03.536Z,33920.00
2018-07-26T06:25:03.319Z,34368.00
2018-07-26T06:26:03.507Z,33344.00
2018-07-26T06:27:03.290Z,32928.00
2018-07-26T06:28:03.304Z,32352.00
2018-07-26T06:29:03.466Z,32480.00
2018-07-26T06:30:03.250Z,32192.00
2018-07-26T06:31:03.239Z,31360.00
2018-07-26T06:32:03.424Z,30784.00
2018-07-26T06:33:03.208Z,32352.00
2018-07-26T06:34:03.192Z,33632.00
2018-07-26T06:35:03.177Z,32544.00
2018-07-26T06:36:03.163Z,30848.00
2018-07-26T06:37:05.773Z,29184.00
2018-07-26T06:38:03.136Z,27808.00
2018-07-26T06:39:03.123Z,26848.00
2018-07-26T06:40:03.312Z,25984.00
2018-07-26T06:41:03.301Z,25568.00
2018-07-26T06:42:03.298Z,24928.00
2018-07-26T06:43:03.270Z,24640.00
2018-07-26T06:44:03.257Z,24288.00
2018-07-26T06:45:03.041Z,24000.00
2018-07-26T06:46:03.229Z,24064.00
2018-07-26T06:47:03.277Z,31584.00
2018-07-26T06:48:03.000Z,42496.00
2018-07-26T06:49:03.190Z,45536.00
2018-07-26T06:50:03.190Z,40000.00
2018-07-26T06:51:03.164Z,40064.00
2018-07-26T06:52:03.149Z,42272.00
2018-07-26T07:23:16.012Z,58976.00
2018-07-26T07:24:15.796Z,58176.00
2018-07-26T07:25:15.780Z,58464.00
2018-07-26T07:26:15.769Z,57152.00
2018-07-26T07:27:15.756Z,56160.00
2018-07-26T07:28:15.945Z,57280.00
2018-07-26T07:29:15.933Z,60800.00
2018-07-26T07:30:15.721Z,62912.00
2018-07-26T07:31:15.704Z,63520.00
2018-07-26T07:32:15.696Z,61216.00
2018-07-26T07:33:15.725Z,61408.00
2018-07-26T07:34:15.676Z,64640.00
2018-07-26T07:35:15.658Z,62720.00
2018-07-26T07:36:15.852Z,60896.00
2018-07-26T07:37:15.836Z,63968.00
2018-07-26T07:38:15.622Z,63040.00
2018-07-26T07:39:15.612Z,62624.00
2018-07-26T07:40:15.599Z,64192.00
2018-07-26T07:41:15.589Z,66304.00
2018-07-26T07:42:15.577Z,67744.00
2018-07-26T07:43:15.766Z,67520.00
2018-07-26T07:44:15.756Z,67040.00
2018-07-26T07:45:15.745Z,64832.00
2018-07-26T07:46:15.532Z,64864.00
2018-07-26T07:47:15.531Z,67776.00
2018-07-26T07:48:15.512Z,64672.00
2018-07-26T07:49:15.506Z,64448.00
2018-07-26T07:50:15.691Z,64448.00
2018-07-26T07:51:15.681Z,64224.00
2018-07-26T07:52:15.668Z,65440.00
2018-07-26T07:53:15.663Z,65952.00
2018-07-26T07:54:15.660Z,69152.00
2018-07-26T07:55:15.437Z,68672.00
2018-07-26T07:56:15.636Z,67424.00
2018-07-26T07:57:15.415Z,68416.00
2018-07-26T07:58:15.610Z,69056.00
2018-07-26T07:59:15.600Z,72640.00
2018-07-26T08:00:19.222Z,71680.00
2018-07-26T08:18:26.244Z,75680.00
2018-07-26T08:19:27.046Z,78912.00
2018-07-26T08:21:09.403Z,74656.00
2018-07-26T08:22:53.182Z,74400.00
2018-07-26T08:23:50.531Z,73792.00
2018-07-26T08:24:50.514Z,74592.00
2018-07-26T08:25:50.510Z,75520.00
2018-07-26T08:26:50.295Z,76608.00
2018-07-26T08:27:50.488Z,75872.00
2018-07-26T08:28:50.477Z,78432.00
2018-07-26T08:29:50.267Z,78848.00
2018-07-26T08:30:50.457Z,80864.00
2018-07-26T08:31:50.242Z,79552.00
2018-07-26T08:32:50.232Z,80992.00
2018-07-26T08:33:50.227Z,82912.00
2018-07-26T08:34:50.218Z,82784.00
2018-07-26T08:35:50.206Z,78528.00
2018-07-26T08:36:50.197Z,79136.00
2018-07-26T08:37:50.189Z,83616.00
2018-07-26T08:38:50.182Z,83136.00
2018-07-26T08:39:50.169Z,84928.00
2018-07-26T08:40:50.160Z,84448.00
2018-07-26T08:41:50.149Z,81568.00
2018-07-26T08:42:50.139Z,83488.00
2018-07-26T08:43:50.139Z,84960.00
2018-07-26T08:44:50.127Z,84448.00
2018-07-26T08:45:50.122Z,84032.00
2018-07-26T08:46:50.116Z,86944.00
2018-07-26T08:47:50.099Z,89600.00
2018-07-26T08:48:50.091Z,89152.00
2018-07-26T08:49:50.086Z,86848.00
2018-07-26T08:50:50.072Z,90528.00
2018-07-26T08:51:50.063Z,91104.00
2018-07-26T08:52:50.059Z,90688.00
2018-07-26T08:53:50.048Z,91744.00
2018-07-26T08:54:50.039Z,92480.00
2018-07-26T08:55:50.031Z,91872.00
2018-07-26T08:56:50.022Z,94976.00
2018-07-26T08:57:50.020Z,92576.00
2018-07-26T08:58:50.009Z,89568.00
2018-07-26T08:59:50.206Z,92256.00
2018-07-26T09:00:50.194Z,93696.00
2018-07-26T09:01:50.796Z,93536.00
2018-07-26T09:02:50.177Z,93440.00
2018-07-26T09:03:50.168Z,94560.00
2018-07-26T09:04:50.161Z,94528.00
2018-07-26T09:05:50.155Z,95168.00
2018-07-26T09:06:49.943Z,96096.00
2018-07-26T09:07:49.940Z,93536.00
2018-07-26T09:08:49.928Z,94816.00
2018-07-26T09:09:50.149Z,97184.00
2018-07-26T09:10:49.949Z,96896.00
2018-07-26T09:11:49.904Z,96768.00
2018-07-26T09:12:49.898Z,96864.00
2018-07-26T09:13:49.904Z,99584.00
2018-07-26T09:14:49.879Z,100448.00
2018-07-26T09:15:50.075Z,98752.00
2018-07-26T09:16:49.866Z,98144.00
2018-07-26T09:17:49.860Z,96544.00
2018-07-26T09:18:49.858Z,97536.00
2018-07-26T09:19:49.902Z,100928.00
2018-07-26T09:20:49.835Z,99328.00
2018-07-26T09:21:49.826Z,97984.00
2018-07-26T09:22:49.824Z,99936.00
2018-07-26T09:23:50.421Z,100352.00
2018-07-26T09:24:49.803Z,100160.00
2018-07-26T09:25:49.798Z,100736.00
2018-07-26T09:26:49.808Z,102080.00
2018-07-26T09:27:49.782Z,101344.00
2018-07-26T09:28:49.800Z,101920.00
2018-07-26T09:29:49.765Z,103264.00
2018-07-26T09:30:49.966Z,102464.00
2018-07-26T09:31:49.750Z,103936.00
2018-07-26T09:32:49.756Z,103264.00
2018-07-26T09:33:49.737Z,100384.00
2018-07-26T09:34:49.734Z,97984.00
2018-07-26T09:35:49.925Z,94880.00
2018-07-26T09:36:49.719Z,97152.00
2018-07-26T09:37:49.706Z,98176.00
2018-07-26T09:38:49.699Z,95776.00
2018-07-26T09:39:49.698Z,96864.00
2018-07-26T09:40:49.684Z,98496.00
2018-07-26T09:41:49.682Z,97664.00
2018-07-26T09:42:49.669Z,97248.00
2018-07-26T09:43:49.673Z,97088.00
2018-07-26T09:44:49.656Z,98208.00
2018-07-26T09:45:49.852Z,97600.00
2018-07-26T09:46:49.853Z,96544.00
2018-07-26T09:47:49.637Z,96576.00
2018-07-26T09:48:49.837Z,96992.00
2018-07-26T09:49:49.846Z,96352.00
2018-07-26T09:50:49.613Z,95200.00
2018-07-26T09:51:49.806Z,95360.00
2018-07-26T09:52:49.599Z,96416.00
2018-07-26T09:53:49.599Z,97280.00
2018-07-26T09:54:49.601Z,97120.00
2018-07-26T09:55:49.580Z,94784.00
2018-07-26T09:56:49.574Z,92800.00
2018-07-26T09:57:49.772Z,94976.00
2018-07-26T09:58:49.563Z,97504.00
2018-07-26T09:59:49.553Z,96480.00
2018-07-26T10:00:49.547Z,97184.00
2018-07-26T10:01:49.541Z,97696.00
2018-07-26T10:02:49.536Z,97920.00
2018-07-26T10:03:49.524Z,96320.00
2018-07-26T10:04:49.518Z,96576.00
2018-07-26T10:05:49.515Z,99104.00
2018-07-26T10:06:49.520Z,95840.00
2018-07-26T10:07:49.500Z,93280.00
2018-07-26T10:08:49.495Z,96640.00
2018-07-26T10:09:49.489Z,95424.00
2018-07-26T10:10:49.481Z,94336.00
2018-07-26T10:11:49.479Z,95072.00
2018-07-26T10:12:49.466Z,94848.00
2018-07-26T10:13:49.462Z,94240.00
2018-07-26T10:14:49.454Z,95712.00
2018-07-26T10:15:49.451Z,95008.00
2018-07-26T10:16:49.442Z,95296.00
2018-07-26T10:17:49.438Z,98144.00
2018-07-26T10:18:49.431Z,99616.00
2018-07-26T10:19:49.425Z,97664.00
2018-07-26T10:20:49.417Z,95584.00
2018-07-26T10:21:49.410Z,96416.00
2018-07-26T10:22:49.408Z,96256.00
2018-07-26T10:23:49.397Z,96256.00
2018-07-26T10:24:49.396Z,99648.00
2018-07-26T10:25:49.385Z,96512.00
2018-07-26T10:26:49.380Z,92992.00
2018-07-26T10:27:49.407Z,93568.00
2018-07-26T10:28:49.366Z,97024.00
2018-07-26T10:29:49.363Z,99104.00
2018-07-26T10:30:49.355Z,94976.00
2018-07-26T10:31:49.348Z,96640.00
2018-07-26T10:32:49.345Z,99360.00
2018-07-26T10:33:49.333Z,96768.00
2018-07-26T10:34:49.327Z,95712.00
2018-07-26T10:35:49.320Z,98816.00
2018-07-26T10:36:49.315Z,98784.00
2018-07-26T10:37:49.316Z,96544.00
2018-07-26T10:38:49.305Z,97696.00
2018-07-26T10:39:49.304Z,98624.00
2018-07-26T10:40:49.292Z,98080.00
2018-07-26T10:41:49.285Z,99840.00
2018-07-26T10:42:49.481Z,98688.00
2018-07-26T10:43:49.273Z,98016.00
2018-07-26T10:44:49.267Z,97632.00
2018-07-26T10:45:49.260Z,98048.00
2018-07-26T10:46:49.256Z,98208.00
2018-07-26T10:47:49.248Z,99072.00
2018-07-26T10:48:49.243Z,101152.00
2018-07-26T10:49:49.253Z,102752.00
2018-07-26T10:50:49.232Z,100960.00
2018-07-26T10:51:49.226Z,100128.00
2018-07-26T10:52:49.224Z,100384.00
2018-07-26T10:53:49.214Z,97536.00
2018-07-26T10:54:49.208Z,98496.00
2018-07-26T10:55:49.202Z,102144.00
2018-07-26T10:56:49.198Z,102656.00
2018-07-26T10:57:49.193Z,102336.00
2018-07-26T10:58:49.187Z,104256.00
2018-07-26T10:59:49.180Z,106112.00
2018-07-26T11:00:49.176Z,101376.00
2018-07-26T11:01:49.172Z,96672.00
2018-07-26T11:02:49.166Z,101280.00
2018-07-26T11:03:49.202Z,104160.00
2018-07-26T11:04:49.154Z,101152.00
2018-07-26T11:05:49.144Z,100608.00
2018-07-26T11:06:49.138Z,100768.00
2018-07-26T11:07:49.133Z,100416.00
2018-07-26T11:08:49.127Z,99264.00
2018-07-26T11:09:49.123Z,101792.00
2018-07-26T11:10:49.127Z,104512.00
2018-07-26T11:11:49.115Z,100992.00
2018-07-26T11:12:49.112Z,97568.00
2018-07-26T11:13:49.097Z,97856.00
2018-07-26T11:14:49.092Z,99616.00
2018-07-26T11:15:49.084Z,97472.00
2018-07-26T11:16:49.081Z,100224.00
2018-07-26T11:17:49.076Z,97568.00
2018-07-26T11:18:49.071Z,100960.00
2018-07-26T11:19:49.068Z,101952.00
2018-07-26T11:20:49.059Z,103936.00
2018-07-26T11:21:49.054Z,106240.00
2018-07-26T11:22:49.047Z,105120.00
2018-07-26T11:23:49.040Z,105728.00
2018-07-26T11:24:49.036Z,108384.00
2018-07-26T11:25:49.028Z,107168.00
2018-07-26T11:26:49.026Z,103488.00
2018-07-26T11:27:49.033Z,104000.00
2018-07-26T11:28:49.011Z,106400.00
2018-07-26T11:29:49.056Z,109408.00
2018-07-26T11:30:49.003Z,108352.00
2018-07-26T11:31:48.995Z,101408.00
2018-07-26T11:32:48.994Z,102208.00
2018-07-26T11:33:48.986Z,106752.00
2018-07-26T11:34:48.978Z,105536.00
2018-07-26T11:35:48.977Z,105696.00
2018-07-26T11:36:48.968Z,105856.00
2018-07-26T11:37:48.973Z,105664.00
2018-07-26T11:38:48.959Z,106560.00
2018-07-26T11:39:48.954Z,105024.00
2018-07-26T11:40:48.947Z,107552.00
2018-07-26T11:41:49.030Z,110080.00
2018-07-26T11:42:48.937Z,108000.00
2018-07-26T11:43:48.970Z,108160.00
2018-07-26T11:44:48.928Z,109696.00
2018-07-26T11:45:48.936Z,109152.00
2018-07-26T11:46:48.920Z,109952.00
2018-07-26T11:47:48.912Z,112192.00
2018-07-26T11:48:48.920Z,108032.00
2018-07-26T11:49:48.904Z,105280.00
2018-07-26T11:50:48.900Z,110848.00
2018-07-26T11:51:48.894Z,112768.00
2018-07-26T11:52:48.945Z,112064.00
2018-07-26T11:53:48.882Z,112416.00
2018-07-26T11:54:48.879Z,110016.00
2018-07-26T11:55:48.877Z,110368.00
2018-07-26T11:56:48.895Z,110464.00
2018-07-26T11:57:48.871Z,111104.00
2018-07-26T11:58:48.864Z,111456.00
2018-07-26T11:59:48.858Z,110464.00
2018-07-26T12:00:48.855Z,110688.00
2018-07-26T12:01:48.851Z,112000.00
2018-07-26T12:02:48.845Z,102048.00
2018-07-26T12:03:48.841Z,96160.00
2018-07-26T12:04:48.835Z,92832.00
2018-07-26T12:05:48.832Z,90912.00
2018-07-26T12:06:48.831Z,98976.00
2018-07-26T12:07:48.821Z,103936.00
2018-07-26T12:08:48.820Z,107968.00
2018-07-26T12:09:48.816Z,110464.00
2018-07-26T12:10:48.813Z,112512.00
2018-07-26T12:11:48.809Z,111232.00
2018-07-26T12:12:48.805Z,107008.00
2018-07-26T12:13:48.799Z,99488.00
2018-07-26T12:14:48.797Z,92736.00
2018-07-26T12:15:48.790Z,100064.00
2018-07-26T12:16:48.787Z,106144.00
2018-07-26T12:17:48.821Z,104832.00
2018-07-26T12:18:48.782Z,53248.00
2018-07-26T12:19:48.791Z,31968.00
2018-07-26T12:20:48.770Z,32384.00
2018-07-26T12:21:48.767Z,32864.00
2018-07-26T12:22:48.765Z,65952.00
2018-07-26T12:23:48.762Z,33120.00
2018-07-26T12:24:48.751Z,30688.00
2018-07-26T12:25:48.750Z,31360.00
2018-07-26T12:26:48.786Z,30464.00
2018-07-26T12:27:48.729Z,31520.00
2018-07-26T12:28:48.722Z,33632.00
2018-07-26T12:29:48.719Z,91296.00
2018-07-26T12:30:48.711Z,50208.00
2018-07-26T12:31:48.702Z,31456.00
2018-07-26T12:32:48.896Z,39456.00
2018-07-26T12:33:48.683Z,29472.00
2018-07-26T12:34:48.674Z,27072.00
2018-07-26T12:35:48.713Z,26432.00
2018-07-26T12:36:48.656Z,26816.00
2018-07-26T12:37:48.851Z,27840.00
2018-07-26T12:38:48.636Z,29760.00
2018-07-26T12:39:48.828Z,32832.00
2018-07-26T12:40:49.223Z,72288.00
2018-07-26T12:41:48.609Z,38016.00
2018-07-26T12:42:48.802Z,111968.00
2018-07-26T12:43:48.593Z,108384.00
2018-07-26T12:44:48.584Z,107424.00
2018-07-26T12:45:48.564Z,66656.00
2018-07-26T12:46:48.760Z,105952.00
2018-07-26T12:47:48.793Z,107072.00
2018-07-26T12:48:48.736Z,105920.00
2018-07-26T12:49:48.528Z,102816.00
2018-07-26T12:50:48.518Z,103584.00
2018-07-26T12:51:48.710Z,105984.00
2018-07-26T12:52:48.705Z,106112.00
2018-07-26T12:53:48.692Z,104032.00
2018-07-26T12:54:48.696Z,105920.00